Time;durP1;ratioP1;P1;durP2;ratioP2;P2;SDS_P1;SDS_P2;PMS_P1;PMS_P2;Temp;Humidity;BMP_temperature;BMP_pressure;BME280_temperature;BME280_humidity;BME280_pressure;Samples;Min_cycle;Max_cycle;Signal;HPM_P1;HPM_P2
2024/03/06 00:01:48;;;;;;;59.78;23.67;;;6.90;99.90;;;;;;5089371;28;20117;-75
2024/03/06 00:04:17;;;;;;;71.13;24.13;;;7.00;99.90;;;;;;5087212;28;20419;-75
2024/03/06 00:06:51;;;;;;;64.60;23.92;;;7.00;99.90;;;;;;5091736;28;20065;-75
2024/03/06 00:09:21;;;;;;;61.40;22.37;;;7.00;99.90;;;;;;5064798;28;20075;-75
2024/03/06 00:11:50;;;;;;;55.33;22.02;;;7.00;99.90;;;;;;5087306;28;20064;-75
2024/03/06 00:14:21;;;;;;;57.08;22.27;;;7.00;99.90;;;;;;5088195;28;20131;-75
2024/03/06 00:16:51;;;;;;;59.60;21.05;;;6.90;99.90;;;;;;5073861;28;20077;-75
2024/03/06 00:19:21;;;;;;;52.75;23.00;;;6.90;99.90;;;;;;5089959;28;20138;-75
2024/03/06 00:21:52;;;;;;;50.53;20.15;;;6.90;99.90;;;;;;5076570;28;20070;-75
2024/03/06 00:24:22;;;;;;;53.75;21.38;;;6.90;99.90;;;;;;5092963;28;20040;-75
2024/03/06 00:26:51;;;;;;;52.08;19.75;;;6.90;99.90;;;;;;5109129;28;20078;-75
2024/03/06 00:29:20;;;;;;;49.90;20.02;;;6.80;99.90;;;;;;5088669;28;20036;-75
2024/03/06 00:31:49;;;;;;;49.55;18.73;;;6.80;99.90;;;;;;5101708;28;20068;-75
2024/03/06 00:34:18;;;;;;;48.92;20.25;;;6.90;99.90;;;;;;5099693;28;20100;-75
2024/03/06 00:36:48;;;;;;;51.55;19.33;;;6.80;99.90;;;;;;5091657;28;20080;-75
2024/03/06 00:39:16;;;;;;;47.85;17.95;;;6.90;99.90;;;;;;5103260;28;20040;-75
2024/03/06 00:41:47;;;;;;;46.15;18.60;;;6.90;99.90;;;;;;5096253;28;20050;-75
2024/03/06 00:44:17;;;;;;;51.40;19.70;;;6.80;99.90;;;;;;5088717;28;20040;-75
2024/03/06 00:46:47;;;;;;;50.45;18.30;;;6.80;99.90;;;;;;5095798;28;20054;-75
2024/03/06 00:49:17;;;;;;;46.30;18.20;;;6.80;99.90;;;;;;5093556;28;20560;-75
2024/03/06 00:51:46;;;;;;;53.42;19.00;;;6.80;99.90;;;;;;5106980;28;20059;-75
2024/03/06 00:54:19;;;;;;;47.72;18.05;;;6.70;99.90;;;;;;5092927;28;20047;-75
2024/03/06 00:56:50;;;;;;;51.00;18.45;;;6.70;99.90;;;;;;5087520;28;20078;-75
2024/03/06 00:59:19;;;;;;;50.67;18.45;;;6.70;99.90;;;;;;5085495;28;20138;-75
2024/03/06 01:01:47;;;;;;;47.55;18.92;;;6.60;99.90;;;;;;5103088;28;20499;-75
2024/03/06 01:04:16;;;;;;;48.10;18.42;;;6.60;99.90;;;;;;5106063;28;20048;-75
2024/03/06 01:06:46;;;;;;;46.35;17.38;;;6.60;99.90;;;;;;5102581;28;20092;-76
2024/03/06 01:09:16;;;;;;;47.47;17.08;;;6.50;99.90;;;;;;5103056;28;20109;-75
2024/03/06 01:11:48;;;;;;;42.40;17.17;;;6.60;99.90;;;;;;5087634;28;20036;-76
2024/03/06 01:14:19;;;;;;;45.40;16.67;;;6.60;99.90;;;;;;5107260;28;20536;-75
2024/03/06 01:16:48;;;;;;;46.33;18.02;;;6.50;99.90;;;;;;5102072;28;20055;-76
2024/03/06 01:19:17;;;;;;;49.83;18.08;;;6.50;99.90;;;;;;5094490;28;20515;-76
2024/03/06 01:21:48;;;;;;;49.17;18.70;;;6.50;99.90;;;;;;5099577;28;20566;-76
2024/03/06 01:24:18;;;;;;;44.13;17.08;;;6.50;99.90;;;;;;5072505;28;20056;-75
2024/03/06 01:26:48;;;;;;;44.10;17.88;;;6.50;99.90;;;;;;5098135;28;20055;-76
2024/03/06 01:29:19;;;;;;;41.47;17.40;;;6.50;99.90;;;;;;5104123;28;20407;-75
2024/03/06 01:31:49;;;;;;;44.10;16.00;;;6.40;99.90;;;;;;5072202;28;20459;-76
2024/03/06 01:34:19;;;;;;;41.85;16.80;;;6.40;99.90;;;;;;5090923;28;20059;-75
2024/03/06 01:36:48;;;;;;;46.63;18.02;;;6.40;99.90;;;;;;5112993;28;20067;-76
2024/03/06 01:39:17;;;;;;;45.50;17.65;;;6.40;99.90;;;;;;5091684;28;20040;-77
2024/03/06 01:41:47;;;;;;;43.25;16.70;;;6.30;99.90;;;;;;5094071;28;20051;-76
2024/03/06 01:44:16;;;;;;;50.55;17.83;;;6.40;99.90;;;;;;5104505;28;20040;-76
2024/03/06 01:46:50;;;;;;;50.10;17.60;;;6.30;99.90;;;;;;5071809;28;20109;-76
2024/03/06 01:49:20;;;;;;;47.20;17.13;;;6.30;99.90;;;;;;5097744;28;20094;-76
2024/03/06 01:52:02;;;;;;;43.63;17.02;;;6.40;99.90;;;;;;5095740;28;20483;-77
2024/03/06 01:54:32;;;;;;;46.67;17.98;;;6.30;99.90;;;;;;5098141;28;20507;-77
2024/03/06 01:57:02;;;;;;;51.70;18.05;;;6.30;99.90;;;;;;5104682;28;20036;-77
2024/03/06 01:59:31;;;;;;;46.05;18.20;;;6.20;99.90;;;;;;5096785;28;20105;-76
2024/03/06 02:02:07;;;;;;;48.42;18.08;;;6.30;99.90;;;;;;5099010;28;20044;-76
2024/03/06 02:04:36;;;;;;;45.17;18.77;;;6.20;99.90;;;;;;5073511;28;20116;-77
2024/03/06 02:07:10;;;;;;;47.03;17.83;;;6.20;99.90;;;;;;5096332;28;20075;-77
2024/03/06 02:09:41;;;;;;;43.17;17.05;;;6.20;99.90;;;;;;5104108;28;20044;-76
2024/03/06 02:12:10;;;;;;;41.50;15.00;;;6.20;99.90;;;;;;5097192;28;20560;-77
2024/03/06 02:14:39;;;;;;;49.08;18.15;;;6.20;99.90;;;;;;5096216;28;20050;-77
2024/03/06 02:17:09;;;;;;;46.17;17.40;;;6.20;99.90;;;;;;5046651;28;20406;-77
2024/03/06 02:19:42;;;;;;;49.08;16.98;;;6.20;99.90;;;;;;5114167;28;20056;-77
2024/03/06 02:22:13;;;;;;;42.47;16.40;;;6.10;99.90;;;;;;5087996;28;20037;-77
2024/03/06 02:24:49;;;;;;;44.78;15.60;;;6.20;99.90;;;;;;5093625;28;20047;-76
2024/03/06 02:27:22;;;;;;;41.70;16.83;;;6.10;99.90;;;;;;5095350;28;20048;-77
2024/03/06 02:29:54;;;;;;;44.15;17.33;;;6.10;99.90;;;;;;5081476;28;20490;-76
2024/03/06 02:32:25;;;;;;;45.30;16.98;;;6.00;99.90;;;;;;5091201;28;20049;-77
2024/03/06 02:34:55;;;;;;;43.45;16.63;;;6.00;99.90;;;;;;5075673;28;20044;-74
2024/03/06 02:37:26;;;;;;;47.78;17.77;;;6.00;99.90;;;;;;5086293;28;20044;-75
2024/03/06 02:39:54;;;;;;;43.08;16.58;;;6.00;99.90;;;;;;5096643;28;20158;-75
2024/03/06 02:42:24;;;;;;;44.70;16.42;;;6.00;99.90;;;;;;5094688;28;20564;-75
2024/03/06 02:44:53;;;;;;;45.97;16.00;;;5.90;99.90;;;;;;5095233;28;20040;-75
2024/03/06 02:47:22;;;;;;;44.95;16.85;;;5.90;99.90;;;;;;5086936;28;20430;-76
2024/03/06 02:49:51;;;;;;;46.88;18.23;;;5.90;99.90;;;;;;5093759;28;20069;-76
2024/03/06 02:52:19;;;;;;;49.35;17.88;;;5.90;99.90;;;;;;5096956;28;20032;-76
2024/03/06 02:54:50;;;;;;;47.97;17.45;;;5.90;99.90;;;;;;5110262;28;20062;-76
2024/03/06 02:57:18;;;;;;;39.67;15.23;;;5.90;99.90;;;;;;5117770;28;20062;-76
2024/03/06 02:59:47;;;;;;;44.22;16.13;;;5.80;99.90;;;;;;5080488;28;20470;-76
2024/03/06 03:02:15;;;;;;;45.28;16.27;;;5.80;99.90;;;;;;5057369;28;20040;-76
2024/03/06 03:04:44;;;;;;;49.58;16.80;;;5.70;99.90;;;;;;5052746;28;20076;-76
2024/03/06 03:07:13;;;;;;;43.40;17.55;;;5.70;99.90;;;;;;5049298;28;20040;-76
2024/03/06 03:09:44;;;;;;;45.25;17.38;;;5.70;99.90;;;;;;5058121;28;20052;-76
2024/03/06 03:12:15;;;;;;;47.58;17.60;;;5.70;99.90;;;;;;5073383;28;20512;-76
2024/03/06 03:14:44;;;;;;;45.00;16.25;;;5.70;99.90;;;;;;5073787;28;20543;-76
2024/03/06 03:17:15;;;;;;;43.42;15.82;;;5.60;99.90;;;;;;5074031;28;20121;-76
2024/03/06 03:19:44;;;;;;;42.35;16.35;;;5.60;99.90;;;;;;5054183;28;20059;-76
2024/03/06 03:22:13;;;;;;;42.85;16.77;;;5.60;99.90;;;;;;5036969;28;20057;-76
2024/03/06 03:24:43;;;;;;;42.60;16.55;;;5.60;99.90;;;;;;5037043;28;20044;-76
2024/03/06 03:27:16;;;;;;;40.42;16.05;;;5.60;99.90;;;;;;5037276;28;20147;-76
2024/03/06 03:29:47;;;;;;;42.40;15.60;;;5.60;99.90;;;;;;5030585;28;20054;-76
2024/03/06 03:32:16;;;;;;;45.17;15.85;;;5.50;99.90;;;;;;5089470;28;20043;-76
2024/03/06 03:34:47;;;;;;;42.92;14.70;;;5.50;99.90;;;;;;5063060;28;20046;-76
2024/03/06 03:37:15;;;;;;;43.40;15.80;;;5.50;99.90;;;;;;5027175;28;20053;-76
2024/03/06 03:39:45;;;;;;;42.03;16.25;;;5.50;99.90;;;;;;5035977;28;20091;-76
2024/03/06 03:42:13;;;;;;;46.60;17.17;;;5.50;99.90;;;;;;5037535;28;20068;-76
2024/03/06 03:44:43;;;;;;;48.90;17.55;;;5.40;99.90;;;;;;5043546;28;20068;-76
2024/03/06 03:47:13;;;;;;;46.20;16.38;;;5.40;99.90;;;;;;5050483;28;20076;-76
2024/03/06 03:49:42;;;;;;;38.83;15.35;;;5.40;99.90;;;;;;5044127;28;20511;-76
2024/03/06 03:52:15;;;;;;;41.80;15.30;;;5.40;99.90;;;;;;5038719;28;20059;-76
2024/03/06 03:54:43;;;;;;;46.25;17.45;;;5.40;99.90;;;;;;5047039;28;20063;-76
2024/03/06 03:57:14;;;;;;;47.92;17.63;;;5.30;99.90;;;;;;5051524;28;20123;-76
2024/03/06 03:59:44;;;;;;;43.45;17.13;;;5.40;99.90;;;;;;5047708;28;20477;-76
2024/03/06 04:02:13;;;;;;;45.70;17.38;;;5.30;99.90;;;;;;5037995;28;20075;-76
2024/03/06 04:04:41;;;;;;;44.17;16.83;;;5.30;99.90;;;;;;5047126;28;20040;-76
2024/03/06 04:07:11;;;;;;;46.55;14.93;;;5.30;99.90;;;;;;5047364;28;20069;-76
2024/03/06 04:09:40;;;;;;;43.58;16.17;;;5.30;99.90;;;;;;5089955;28;20139;-76
2024/03/06 04:12:09;;;;;;;45.20;16.70;;;5.30;99.90;;;;;;5086552;28;20211;-76
2024/03/06 04:14:38;;;;;;;51.20;17.50;;;5.20;99.90;;;;;;5092074;28;20045;-76
2024/03/06 04:17:08;;;;;;;39.95;15.85;;;5.20;99.90;;;;;;5099387;28;20083;-76
2024/03/06 04:19:37;;;;;;;42.78;17.27;;;5.20;99.90;;;;;;5090092;28;20076;-76
2024/03/06 04:22:06;;;;;;;46.78;17.35;;;5.20;99.90;;;;;;5082601;28;20044;-76
2024/03/06 04:24:35;;;;;;;39.72;16.02;;;5.20;99.90;;;;;;5086208;28;20051;-76
2024/03/06 04:27:03;;;;;;;45.72;18.13;;;5.20;99.90;;;;;;5091055;28;20051;-76
2024/03/06 04:29:33;;;;;;;40.17;16.83;;;5.10;99.90;;;;;;5091507;28;20563;-76
2024/03/06 04:32:02;;;;;;;44.55;17.30;;;5.10;99.90;;;;;;5091105;28;20035;-76
2024/03/06 04:34:32;;;;;;;43.25;16.40;;;5.10;99.90;;;;;;5091862;28;20461;-76
2024/03/06 04:37:02;;;;;;;45.78;16.50;;;5.10;99.90;;;;;;5091811;28;20056;-76
2024/03/06 04:39:32;;;;;;;48.28;17.95;;;5.10;99.90;;;;;;5089761;28;20164;-75
2024/03/06 04:42:01;;;;;;;42.22;16.35;;;5.10;99.90;;;;;;5088098;28;20048;-75
2024/03/06 04:44:30;;;;;;;45.47;16.77;;;5.00;99.90;;;;;;5086041;28;20131;-75
2024/03/06 04:46:58;;;;;;;38.97;16.30;;;5.00;99.90;;;;;;5090949;28;20079;-75
2024/03/06 04:49:27;;;;;;;43.50;17.85;;;5.00;99.90;;;;;;5084825;28;20369;-75
2024/03/06 04:51:58;;;;;;;40.88;15.65;;;4.90;99.90;;;;;;5084526;28;20072;-75
2024/03/06 04:54:27;;;;;;;42.33;16.90;;;4.90;99.90;;;;;;5093375;28;20048;-76
2024/03/06 04:56:56;;;;;;;43.03;16.98;;;4.90;99.90;;;;;;5088362;28;20062;-75
2024/03/06 04:59:26;;;;;;;43.53;15.93;;;4.90;99.90;;;;;;5084501;28;20103;-75
2024/03/06 05:01:54;;;;;;;45.05;16.60;;;4.90;99.90;;;;;;5099470;28;20070;-76
2024/03/06 05:04:23;;;;;;;47.80;16.48;;;4.90;99.90;;;;;;5104579;28;20052;-76
2024/03/06 05:07:10;;;;;;;45.38;17.58;;;4.90;99.90;;;;;;5082829;28;20040;-76
2024/03/06 05:09:57;;;;;;;40.00;15.05;;;4.90;99.90;;;;;;5091875;28;20502;-76
2024/03/06 05:12:42;;;;;;;38.10;13.90;;;4.80;99.90;;;;;;5094028;28;20089;-76
2024/03/06 05:15:28;;;;;;;45.20;16.77;;;4.80;99.90;;;;;;5088331;28;20055;-76
2024/03/06 05:18:15;;;;;;;44.28;15.77;;;4.80;99.90;;;;;;5096506;28;20048;-76
2024/03/06 05:21:01;;;;;;;35.60;14.75;;;4.80;99.90;;;;;;5093112;28;20438;-76
2024/03/06 05:23:49;;;;;;;48.80;16.42;;;4.80;99.90;;;;;;5114303;28;20054;-76
2024/03/06 05:26:36;;;;;;;41.92;16.63;;;4.80;99.90;;;;;;5098264;28;20406;-77
2024/03/06 05:29:23;;;;;;;44.88;17.95;;;4.80;99.90;;;;;;5098401;28;20047;-76
2024/03/06 05:32:10;;;;;;;56.35;20.30;;;4.80;99.90;;;;;;5089872;28;20045;-76
2024/03/06 05:34:57;;;;;;;58.10;21.98;;;4.80;99.90;;;;;;5082443;28;20041;-76
2024/03/06 05:37:44;;;;;;;50.85;21.02;;;4.80;99.90;;;;;;5111004;28;20839;-76
2024/03/06 05:40:37;;;;;;;48.05;18.60;;;4.90;99.90;;;;;;5094870;28;20040;-76
2024/03/06 05:43:23;;;;;;;50.92;20.08;;;4.90;99.90;;;;;;5094022;28;20056;-76
2024/03/06 05:46:09;;;;;;;54.67;20.38;;;4.90;99.90;;;;;;5088806;28;20052;-76
2024/03/06 05:48:55;;;;;;;54.17;20.95;;;4.90;99.90;;;;;;5090080;28;20040;-76
2024/03/06 05:51:41;;;;;;;54.25;20.20;;;4.90;99.90;;;;;;5099694;28;20086;-76
2024/03/06 05:54:27;;;;;;;56.30;20.50;;;4.90;99.90;;;;;;5097835;28;20495;-76
2024/03/06 05:57:14;;;;;;;45.55;19.33;;;4.90;99.90;;;;;;5104015;28;20054;-76
2024/03/06 06:00:00;;;;;;;50.38;19.05;;;5.00;99.90;;;;;;5096492;28;20126;-76
2024/03/06 06:02:39;;;;;;;57.55;21.08;;;5.00;99.90;;;;;;5102709;28;20054;-76
2024/03/06 06:05:08;;;;;;;52.20;20.73;;;5.00;99.90;;;;;;5107957;28;20076;-76
2024/03/06 06:07:51;;;;;;;50.00;19.08;;;5.10;99.90;;;;;;5082722;28;20048;-76
2024/03/06 06:10:21;;;;;;;56.33;20.38;;;5.20;99.90;;;;;;5080144;28;20453;-77
2024/03/06 06:12:54;;;;;;;53.05;20.42;;;5.20;99.90;;;;;;5097863;28;20047;-77
2024/03/06 06:15:25;;;;;;;51.60;17.83;;;5.20;99.90;;;;;;5063889;28;20058;-77
2024/03/06 06:17:56;;;;;;;47.72;19.25;;;5.30;99.90;;;;;;5106498;28;20054;-77
2024/03/06 06:20:24;;;;;;;54.00;19.80;;;5.40;99.90;;;;;;5095282;28;20147;-76
2024/03/06 06:22:57;;;;;;;56.70;20.07;;;5.40;99.90;;;;;;5078730;28;20054;-76
2024/03/06 06:25:27;;;;;;;48.72;18.50;;;5.50;99.90;;;;;;5091225;28;20040;-76
2024/03/06 06:27:58;;;;;;;60.38;19.25;;;5.60;99.90;;;;;;5113197;28;20044;-76
2024/03/06 06:30:27;;;;;;;55.83;19.33;;;5.60;99.90;;;;;;5108136;28;20055;-76
2024/03/06 06:32:58;;;;;;;53.90;21.13;;;5.70;99.90;;;;;;5088701;28;20044;-76
2024/03/06 06:35:29;;;;;;;56.72;21.05;;;5.80;99.90;;;;;;5097009;28;20119;-77
2024/03/06 06:37:58;;;;;;;54.42;19.08;;;5.90;99.90;;;;;;5092350;28;20056;-77
2024/03/06 06:40:27;;;;;;;52.92;20.65;;;6.00;99.90;;;;;;5094569;28;20514;-77
2024/03/06 06:42:59;;;;;;;57.60;22.80;;;6.00;99.90;;;;;;5108231;28;20187;-77
2024/03/06 06:45:27;;;;;;;55.28;21.70;;;6.10;99.90;;;;;;5094421;28;20142;-77
2024/03/06 06:47:59;;;;;;;52.25;20.58;;;6.20;99.90;;;;;;5080173;28;20044;-77
2024/03/06 06:50:33;;;;;;;55.10;21.30;;;6.20;99.90;;;;;;5078937;28;20055;-76
2024/03/06 06:53:04;;;;;;;58.33;22.40;;;6.30;99.90;;;;;;5070160;28;20133;-77
2024/03/06 06:55:36;;;;;;;67.72;24.17;;;6.40;99.90;;;;;;5094141;28;20047;-77
2024/03/06 06:58:06;;;;;;;73.18;26.50;;;6.40;99.90;;;;;;5095545;28;20121;-76
2024/03/06 07:00:37;;;;;;;72.00;24.85;;;6.40;99.90;;;;;;5063123;28;20139;-76
2024/03/06 07:03:06;;;;;;;68.18;24.45;;;6.40;99.90;;;;;;5082579;28;20144;-76
2024/03/06 07:05:36;;;;;;;70.53;25.08;;;6.40;99.90;;;;;;5073396;28;20075;-77
2024/03/06 07:08:05;;;;;;;74.85;27.02;;;6.50;99.90;;;;;;5080102;28;20052;-76
2024/03/06 07:10:35;;;;;;;76.70;28.55;;;6.50;99.90;;;;;;5074354;28;20467;-78
2024/03/06 07:13:05;;;;;;;73.35;26.17;;;6.60;99.90;;;;;;5068395;28;20059;-77
2024/03/06 07:15:38;;;;;;;75.35;28.60;;;6.80;99.90;;;;;;5089706;28;20467;-77
2024/03/06 07:18:06;;;;;;;68.25;26.92;;;7.00;99.90;;;;;;5094736;28;20044;-77
2024/03/06 07:20:35;;;;;;;63.47;26.42;;;7.00;99.90;;;;;;5090498;28;20449;-77
2024/03/06 07:23:04;;;;;;;70.88;26.75;;;7.10;99.90;;;;;;5087462;28;20570;-77
2024/03/06 07:25:32;;;;;;;68.32;25.80;;;7.10;99.90;;;;;;5094708;28;20502;-77
2024/03/06 07:28:01;;;;;;;70.18;28.15;;;7.10;99.90;;;;;;5092819;28;20047;-77
2024/03/06 07:30:30;;;;;;;68.53;26.80;;;7.20;99.90;;;;;;5094765;28;20039;-77
2024/03/06 07:33:01;;;;;;;63.17;25.50;;;7.20;99.90;;;;;;5091321;28;20056;-77
2024/03/06 07:35:29;;;;;;;65.53;25.88;;;7.30;99.90;;;;;;5108725;27;20049;-77
2024/03/06 07:37:59;;;;;;;66.22;25.33;;;7.40;99.90;;;;;;5090850;28;20568;-77
2024/03/06 07:40:29;;;;;;;63.20;24.10;;;7.50;99.90;;;;;;5087625;28;20143;-78
2024/03/06 07:42:57;;;;;;;62.85;24.00;;;7.60;99.90;;;;;;5095269;28;20056;-78
2024/03/06 07:45:26;;;;;;;58.75;22.83;;;7.70;99.90;;;;;;5110747;28;20047;-78
2024/03/06 07:47:55;;;;;;;61.20;23.85;;;7.80;99.90;;;;;;5073896;28;20068;-78
2024/03/06 07:50:27;;;;;;;53.92;22.73;;;7.80;99.90;;;;;;5088501;28;20116;-78
2024/03/06 07:52:55;;;;;;;49.90;19.58;;;7.90;99.90;;;;;;5095305;28;20503;-77
2024/03/06 07:55:24;;;;;;;39.38;17.00;;;8.10;99.90;;;;;;5087070;28;20048;-78
2024/03/06 07:57:53;;;;;;;42.83;16.65;;;8.20;99.90;;;;;;5088405;28;20086;-78
2024/03/06 08:00:26;;;;;;;40.65;18.42;;;8.30;99.90;;;;;;5086228;28;20082;-78
2024/03/06 08:02:56;;;;;;;45.38;18.55;;;8.40;99.90;;;;;;5086434;28;20574;-78
2024/03/06 08:05:26;;;;;;;41.22;20.20;;;8.50;99.90;;;;;;5082542;28;20560;-78
2024/03/06 08:07:54;;;;;;;41.70;18.58;;;8.70;99.90;;;;;;5088841;28;20625;-78
2024/03/06 08:10:23;;;;;;;37.00;16.30;;;8.80;99.90;;;;;;5088918;28;20056;-79
2024/03/06 08:12:51;;;;;;;35.15;15.13;;;9.00;99.90;;;;;;5083914;28;20044;-77
2024/03/06 08:15:21;;;;;;;36.20;15.93;;;9.10;99.90;;;;;;5086159;28;20040;-79
2024/03/06 08:17:52;;;;;;;29.50;14.05;;;9.20;99.90;;;;;;5092550;28;20078;-77
2024/03/06 08:20:23;;;;;;;27.15;12.60;;;9.20;99.90;;;;;;5088981;28;20507;-77
2024/03/06 08:22:54;;;;;;;33.55;15.43;;;9.40;99.90;;;;;;5086985;28;20043;-77
2024/03/06 08:25:23;;;;;;;34.15;15.80;;;9.50;99.90;;;;;;5085481;28;20043;-77
2024/03/06 08:27:51;;;;;;;38.45;15.75;;;9.60;99.90;;;;;;5083009;28;20554;-78
2024/03/06 08:30:19;;;;;;;31.17;14.60;;;9.60;99.90;;;;;;5083564;28;20046;-76
2024/03/06 08:32:48;;;;;;;34.95;15.50;;;9.60;99.90;;;;;;5080671;28;20036;-77
2024/03/06 08:35:18;;;;;;;38.17;16.90;;;9.80;99.90;;;;;;5095707;28;20473;-79
2024/03/06 08:37:50;;;;;;;40.28;17.50;;;9.90;99.90;;;;;;5082355;28;20482;-81
2024/03/06 08:40:20;;;;;;;48.83;20.67;;;9.90;99.90;;;;;;5093628;28;20398;-79
2024/03/06 08:42:49;;;;;;;35.63;18.67;;;10.10;99.90;;;;;;5088569;28;20526;-79
2024/03/06 08:45:18;;;;;;;43.60;19.83;;;10.10;99.90;;;;;;5087605;28;20043;-81
2024/03/06 08:47:47;;;;;;;40.58;17.90;;;10.20;99.90;;;;;;5083035;28;20052;-78
2024/03/06 08:50:16;;;;;;;44.15;18.95;;;10.20;99.90;;;;;;5083320;28;20060;-78
2024/03/06 08:52:45;;;;;;;41.72;20.10;;;10.20;99.90;;;;;;5082318;28;20048;-79
2024/03/06 08:55:14;;;;;;;38.22;18.13;;;10.40;99.90;;;;;;5098894;28;20055;-77
2024/03/06 08:57:45;;;;;;;40.33;16.73;;;10.40;99.90;;;;;;5084300;28;20044;-84
2024/03/06 09:00:15;;;;;;;36.78;18.23;;;10.50;99.90;;;;;;5082166;28;20040;-79
2024/03/06 09:02:43;;;;;;;37.88;18.13;;;10.50;99.90;;;;;;5084514;28;20051;-83
2024/03/06 09:05:13;;;;;;;42.95;17.63;;;10.60;99.90;;;;;;5086349;28;20048;-79
2024/03/06 09:07:42;;;;;;;38.58;18.60;;;10.70;99.90;;;;;;5081060;28;20047;-82
2024/03/06 09:10:12;;;;;;;37.28;17.98;;;10.70;99.90;;;;;;5091945;28;20044;-78
2024/03/06 09:12:41;;;;;;;38.15;17.58;;;10.80;99.90;;;;;;5079524;28;20098;-79
2024/03/06 09:15:11;;;;;;;37.03;17.38;;;10.90;99.90;;;;;;5084052;28;20162;-82
2024/03/06 09:17:41;;;;;;;33.42;16.75;;;11.00;99.90;;;;;;5083040;28;20466;-79
2024/03/06 09:20:11;;;;;;;32.13;16.10;;;11.00;99.90;;;;;;5076250;28;20515;-78
2024/03/06 09:22:42;;;;;;;34.90;14.68;;;11.20;99.90;;;;;;5079170;28;20052;-78
2024/03/06 09:25:13;;;;;;;34.53;16.30;;;11.10;99.90;;;;;;5081600;28;20068;-78
2024/03/06 09:27:44;;;;;;;31.20;16.10;;;11.20;99.90;;;;;;5085006;28;20048;-82
2024/03/06 09:30:15;;;;;;;30.90;14.90;;;11.30;99.90;;;;;;5083612;28;20032;-84
2024/03/06 09:32:44;;;;;;;28.92;14.68;;;11.40;99.90;;;;;;5078502;28;20067;-82
2024/03/06 09:35:15;;;;;;;33.45;14.27;;;11.60;99.90;;;;;;5086863;28;20147;-78
2024/03/06 09:37:43;;;;;;;31.48;14.73;;;11.60;99.90;;;;;;5089411;28;20100;-83
2024/03/06 09:40:20;;;;;;;31.58;15.25;;;11.70;99.90;;;;;;5086669;28;20436;-82
2024/03/06 09:42:49;;;;;;;30.95;14.25;;;11.80;99.90;;;;;;5093828;28;20043;-78
2024/03/06 09:45:21;;;;;;;27.20;13.88;;;12.00;99.90;;;;;;5093842;28;20076;-80
2024/03/06 09:47:51;;;;;;;26.23;12.50;;;12.10;99.90;;;;;;5081536;28;20531;-79
2024/03/06 09:50:25;;;;;;;25.52;12.98;;;12.30;99.90;;;;;;5097104;28;20048;-82
2024/03/06 09:52:56;;;;;;;24.10;12.25;;;12.30;99.90;;;;;;5086326;28;20158;-79
2024/03/06 09:55:27;;;;;;;29.30;11.07;;;12.40;99.90;;;;;;5086165;28;20523;-78
2024/03/06 09:57:56;;;;;;;23.73;10.30;;;12.70;99.90;;;;;;5079169;28;20120;-79
2024/03/06 10:00:28;;;;;;;22.05;9.35;;;12.50;99.90;;;;;;5064832;28;20507;-81
2024/03/06 10:02:59;;;;;;;19.80;9.75;;;12.40;99.90;;;;;;5066892;28;20055;-77
2024/03/06 10:05:30;;;;;;;20.38;10.57;;;12.30;99.90;;;;;;5072405;28;20067;-81
2024/03/06 10:07:59;;;;;;;21.05;11.23;;;12.50;99.90;;;;;;5066664;28;20567;-80
2024/03/06 10:10:29;;;;;;;21.55;9.27;;;12.70;99.90;;;;;;5073123;28;20044;-81
2024/03/06 10:13:02;;;;;;;22.00;9.70;;;12.70;99.90;;;;;;5072928;28;20140;-77
2024/03/06 10:15:36;;;;;;;21.85;11.02;;;12.90;99.90;;;;;;5069927;28;20043;-79
2024/03/06 10:18:15;;;;;;;22.90;10.70;;;12.80;99.90;;;;;;5068080;28;20048;-78
2024/03/06 10:20:44;;;;;;;20.25;9.80;;;13.00;99.90;;;;;;5082114;28;20052;-79
2024/03/06 10:23:13;;;;;;;19.83;11.02;;;13.10;99.90;;;;;;5069043;28;20052;-78
2024/03/06 10:25:45;;;;;;;18.38;9.95;;;13.30;99.90;;;;;;5082738;28;20048;-77
2024/03/06 10:28:16;;;;;;;18.75;9.40;;;13.30;99.90;;;;;;5089805;28;20062;-80
2024/03/06 10:30:46;;;;;;;18.15;9.15;;;13.80;99.90;;;;;;5072031;28;20173;-75
2024/03/06 10:33:15;;;;;;;21.40;10.13;;;13.60;99.90;;;;;;5082759;28;20133;-80
2024/03/06 10:35:46;;;;;;;19.77;9.25;;;13.60;99.90;;;;;;5088581;28;20047;-76
2024/03/06 10:38:16;;;;;;;20.70;10.63;;;14.00;99.90;;;;;;5103845;27;20127;-77
2024/03/06 10:40:46;;;;;;;19.88;10.85;;;13.80;99.90;;;;;;5106995;27;20052;-76
2024/03/06 10:43:16;;;;;;;18.70;9.98;;;13.90;99.90;;;;;;5085960;28;20072;-76
2024/03/06 10:45:49;;;;;;;28.15;11.98;;;14.00;99.90;;;;;;5080000;28;20063;-77
2024/03/06 10:48:19;;;;;;;20.63;10.70;;;13.60;99.90;;;;;;5090264;28;20457;-76
2024/03/06 10:50:50;;;;;;;18.50;10.73;;;13.50;99.90;;;;;;5090220;28;20040;-78
2024/03/06 10:53:19;;;;;;;20.75;10.15;;;13.30;99.90;;;;;;5085254;28;20047;-75
2024/03/06 10:55:52;;;;;;;16.45;9.68;;;13.10;99.90;;;;;;5090977;28;20101;-76
2024/03/06 10:58:22;;;;;;;18.73;8.88;;;13.10;99.90;;;;;;5095075;28;20044;-76
2024/03/06 11:00:55;;;;;;;20.80;9.82;;;13.10;99.90;;;;;;5083012;28;20115;-76
2024/03/06 11:03:24;;;;;;;15.07;9.25;;;13.10;99.90;;;;;;5083939;28;20143;-76
2024/03/06 11:05:53;;;;;;;16.92;8.52;;;13.10;99.90;;;;;;5081079;28;20044;-76
2024/03/06 11:08:25;;;;;;;14.80;8.07;;;13.00;99.90;;;;;;5090161;28;20036;-75
2024/03/06 11:10:54;;;;;;;15.75;7.68;;;13.00;99.90;;;;;;5087428;28;20044;-76
2024/03/06 11:13:24;;;;;;;17.50;9.35;;;13.00;99.90;;;;;;5082815;28;20499;-75
2024/03/06 11:15:58;;;;;;;16.88;8.68;;;13.10;99.90;;;;;;5082824;28;20384;-75
2024/03/06 11:18:46;;;;;;;17.50;8.85;;;13.40;99.90;;;;;;5084827;28;20051;-75
2024/03/06 11:21:32;;;;;;;16.95;9.75;;;13.60;99.90;;;;;;5104197;27;20051;-76
2024/03/06 11:24:19;;;;;;;16.90;8.93;;;13.90;99.90;;;;;;5102324;27;20047;-73
2024/03/06 11:26:49;;;;;;;15.15;7.97;;;14.00;99.90;;;;;;5088642;28;20032;-75
2024/03/06 11:29:19;;;;;;;17.90;8.40;;;14.10;99.10;;;;;;5090141;28;20605;-75
2024/03/06 11:32:07;;;;;;;14.30;7.35;;;14.20;99.90;;;;;;5085413;28;20076;-76
2024/03/06 11:34:37;;;;;;;15.55;8.43;;;14.20;99.90;;;;;;5101907;27;20063;-75
2024/03/06 11:37:09;;;;;;;17.45;7.32;;;14.10;98.90;;;;;;5095203;28;20094;-75
2024/03/06 11:39:40;;;;;;;17.85;7.88;;;14.00;99.40;;;;;;5097181;27;20048;-76
2024/03/06 11:42:10;;;;;;;16.70;7.95;;;14.00;99.50;;;;;;5081954;28;20048;-75
2024/03/06 11:44:56;;;;;;;15.68;7.88;;;13.80;99.00;;;;;;5084022;28;20124;-75
2024/03/06 11:47:26;;;;;;;18.48;9.63;;;14.00;99.90;;;;;;5099735;28;20498;-76
2024/03/06 11:49:55;;;;;;;17.85;9.30;;;14.10;99.90;;;;;;5081482;28;20068;-76
2024/03/06 11:52:24;;;;;;;16.38;8.23;;;14.00;99.90;;;;;;5082925;28;20047;-76
2024/03/06 11:54:54;;;;;;;16.10;9.02;;;13.80;99.20;;;;;;5087480;28;20485;-75
2024/03/06 11:57:23;;;;;;;22.05;9.70;;;13.80;99.40;;;;;;5079405;28;20044;-76
2024/03/06 11:59:55;;;;;;;16.73;8.45;;;13.90;98.70;;;;;;5081129;28;20574;-75
2024/03/06 12:02:23;;;;;;;14.27;8.23;;;13.90;98.90;;;;;;5085589;28;20036;-76
2024/03/06 12:04:53;;;;;;;17.45;8.23;;;13.90;99.30;;;;;;5101363;28;20059;-76
2024/03/06 12:07:22;;;;;;;17.73;8.90;;;14.00;99.90;;;;;;5099958;27;20423;-76
2024/03/06 12:09:53;;;;;;;15.40;8.18;;;13.90;99.30;;;;;;5070793;28;20101;-77
2024/03/06 12:12:22;;;;;;;14.98;7.43;;;13.80;99.40;;;;;;5102269;27;20044;-76
2024/03/06 12:15:00;;;;;;;15.20;7.72;;;13.80;99.70;;;;;;5096147;28;20093;-76
2024/03/06 12:17:28;;;;;;;14.80;8.60;;;13.70;99.00;;;;;;5089780;28;20047;-76
2024/03/06 12:20:01;;;;;;;14.75;7.18;;;13.70;99.20;;;;;;5086086;28;20127;-78
2024/03/06 12:22:30;;;;;;;13.85;7.30;;;13.60;98.70;;;;;;5086634;28;20650;-76
2024/03/06 12:25:01;;;;;;;11.93;7.22;;;13.60;98.50;;;;;;5102147;27;20057;-77
2024/03/06 12:27:29;;;;;;;14.00;6.57;;;13.50;98.40;;;;;;5101429;27;20218;-77
2024/03/06 12:29:58;;;;;;;10.70;6.68;;;13.40;98.50;;;;;;5082506;28;20036;-76
2024/03/06 12:32:29;;;;;;;15.57;7.18;;;13.60;98.90;;;;;;5081538;28;20598;-76
2024/03/06 12:35:00;;;;;;;12.60;6.40;;;13.60;99.10;;;;;;5078263;28;20047;-76
2024/03/06 12:37:31;;;;;;;13.38;7.00;;;13.70;98.50;;;;;;5087203;28;20048;-76
2024/03/06 12:40:00;;;;;;;16.77;7.90;;;13.70;98.50;;;;;;5083945;28;20044;-76
2024/03/06 12:42:29;;;;;;;14.98;6.95;;;13.70;98.90;;;;;;5102571;28;20078;-76
2024/03/06 12:44:58;;;;;;;14.48;7.32;;;13.70;98.40;;;;;;5078368;28;20106;-76
2024/03/06 12:47:27;;;;;;;14.68;7.30;;;13.70;97.90;;;;;;5070188;28;20045;-76
2024/03/06 12:49:55;;;;;;;11.57;6.70;;;13.70;97.90;;;;;;5084747;28;20509;-78
2024/03/06 12:52:25;;;;;;;12.95;6.80;;;13.80;98.00;;;;;;5078804;28;20045;-75
2024/03/06 12:54:54;;;;;;;19.85;7.10;;;13.80;97.60;;;;;;5082934;28;20048;-76
2024/03/06 12:57:23;;;;;;;12.10;6.82;;;13.90;99.00;;;;;;5082442;28;20449;-76